createdAt,value
2022-10-22T00:01:05.277Z,100878.56
2022-10-22T00:04:08.222Z,100882.03
2022-10-22T00:07:11.368Z,100879.28
2022-10-22T00:10:14.410Z,100879.66
2022-10-22T00:13:17.207Z,100882.88
2022-10-22T00:16:19.914Z,100894.22
2022-10-22T00:19:22.656Z,100888.59
2022-10-22T00:22:25.344Z,100889.19
2022-10-22T00:25:28.237Z,100886.56
2022-10-22T00:28:30.994Z,100886.09
2022-10-22T00:31:34.026Z,100884.03
2022-10-22T00:34:36.810Z,100884.13
2022-10-22T00:37:39.517Z,100885.97
2022-10-22T00:40:42.271Z,100878.88
2022-10-22T00:44:33.115Z,100875.97
2022-10-22T00:47:39.707Z,100883.31
2022-10-22T00:50:48.238Z,100875.75
2022-10-22T00:53:56.146Z,100879.06
2022-10-22T00:56:59.076Z,100874.31
2022-10-22T01:00:02.328Z,100881.06
2022-10-22T01:03:06.836Z,100880.88
2022-10-22T01:06:15.046Z,100879.63
2022-10-22T01:09:29.894Z,100869.56
2022-10-22T01:12:32.565Z,100872.44
2022-10-22T01:16:00.401Z,100864.88
2022-10-22T01:19:44.991Z,100857.50
2022-10-22T01:23:08.991Z,100861.88
2022-10-22T01:26:12.085Z,100853.78
2022-10-22T01:29:24.229Z,100855.44
2022-10-22T01:32:30.183Z,100856.69
2022-10-22T01:35:37.761Z,100854.16
2022-10-22T01:38:42.855Z,100843.81
2022-10-22T01:41:45.771Z,100841.84
2022-10-22T01:44:50.371Z,100829.84
2022-10-22T01:48:06.660Z,100843.16
2022-10-22T01:51:57.107Z,100840.00
2022-10-22T01:55:03.691Z,100830.47
2022-10-22T01:58:09.516Z,100840.75
2022-10-22T02:01:12.258Z,100841.78
2022-10-22T02:04:18.307Z,100844.06
2022-10-22T02:07:24.818Z,100841.56
2022-10-22T02:10:30.362Z,100842.13
2022-10-22T02:13:47.358Z,100840.88
2022-10-22T02:16:50.916Z,100835.22
2022-10-22T02:20:01.517Z,100839.28
2022-10-22T02:23:05.247Z,100835.09
2022-10-22T02:26:25.010Z,100839.59
2022-10-22T02:29:39.305Z,100823.53
2022-10-22T02:32:55.630Z,100825.53
2022-10-22T02:36:00.910Z,100826.34
2022-10-22T02:39:04.577Z,100833.81
2022-10-22T02:42:09.263Z,100825.66
2022-10-22T02:45:12.080Z,100820.03
2022-10-22T02:48:15.034Z,100823.88
2022-10-22T02:51:17.888Z,100825.41
2022-10-22T02:54:21.211Z,100816.78
2022-10-22T02:57:23.908Z,100822.97
2022-10-22T03:00:26.702Z,100819.41
2022-10-22T03:03:29.541Z,100818.28
2022-10-22T03:06:32.568Z,100823.50
2022-10-22T03:09:35.612Z,100826.09
2022-10-22T03:12:38.420Z,100814.81
2022-10-22T03:15:41.120Z,100825.84
2022-10-22T03:18:44.042Z,100825.88
2022-10-22T03:21:50.812Z,100830.75
2022-10-22T03:24:58.472Z,100829.97
2022-10-22T03:28:07.534Z,100811.84
2022-10-22T03:31:10.399Z,100814.28
2022-10-22T03:34:13.608Z,100821.94
2022-10-22T03:37:17.277Z,100825.63
2022-10-22T03:40:20.981Z,100820.28
2022-10-22T03:43:23.740Z,100823.41
2022-10-22T03:46:26.571Z,100822.28
2022-10-22T03:49:29.375Z,100816.94
2022-10-22T03:52:37.782Z,100816.81
2022-10-22T03:55:41.715Z,100811.53
2022-10-22T03:58:44.409Z,100816.38
2022-10-22T04:01:47.143Z,100810.28
2022-10-22T04:04:49.964Z,100800.53
2022-10-22T04:07:52.784Z,100813.34
2022-10-22T04:10:55.630Z,100810.03
2022-10-22T04:13:58.427Z,100817.97
2022-10-22T04:17:01.519Z,100801.03
2022-10-22T04:20:05.385Z,100803.03
2022-10-22T04:23:08.151Z,100809.53
2022-10-22T04:26:10.914Z,100811.59
2022-10-22T04:29:16.141Z,100805.34
2022-10-22T04:32:19.270Z,100814.97
2022-10-22T04:35:22.369Z,100809.72
2022-10-22T04:38:25.129Z,100810.13
2022-10-22T04:41:33.681Z,100816.22
2022-10-22T04:44:36.416Z,100811.06
2022-10-22T04:47:39.516Z,100809.56
2022-10-22T04:50:42.542Z,100802.63
2022-10-22T04:53:46.730Z,100802.19
2022-10-22T04:56:49.542Z,100796.84
2022-10-22T04:59:52.663Z,100786.72
2022-10-22T05:02:55.506Z,100777.09
2022-10-22T05:06:01.730Z,100782.72
2022-10-22T05:09:08.083Z,100784.88
2022-10-22T05:12:10.928Z,100787.16
2022-10-22T05:15:13.683Z,100787.59
2022-10-22T05:18:19.056Z,100800.81
2022-10-22T05:21:24.695Z,100800.28
2022-10-22T05:24:28.829Z,100806.88
2022-10-22T05:27:31.724Z,100807.00
2022-10-22T05:30:34.486Z,100804.84
2022-10-22T05:33:37.365Z,100804.47
2022-10-22T05:36:40.249Z,100796.53
2022-10-22T05:39:42.984Z,100793.00
2022-10-22T05:42:45.700Z,100802.22
2022-10-22T05:45:48.523Z,100807.50
2022-10-22T05:48:55.395Z,100803.59
2022-10-22T05:51:58.075Z,100806.31
2022-10-22T05:55:00.850Z,100808.81
2022-10-22T05:58:04.876Z,100824.00
2022-10-22T06:01:15.701Z,100816.25
2022-10-22T06:04:18.768Z,100817.66
2022-10-22T06:07:21.465Z,100824.88
2022-10-22T06:10:24.355Z,100824.72
2022-10-22T06:13:27.080Z,100817.31
2022-10-22T06:16:31.135Z,100821.72
2022-10-22T06:19:33.990Z,100821.53
2022-10-22T06:22:36.854Z,100829.88
2022-10-22T06:25:39.623Z,100836.25
2022-10-22T06:28:42.444Z,100843.13
2022-10-22T06:31:45.347Z,100849.28
2022-10-22T06:34:48.496Z,100854.59
2022-10-22T06:37:51.284Z,100848.84
2022-10-22T06:40:54.069Z,100850.25
2022-10-22T06:43:58.074Z,100852.88
2022-10-22T06:47:01.288Z,100859.09
2022-10-22T06:50:04.278Z,100862.84
2022-10-22T06:53:07.082Z,100865.75
2022-10-22T06:56:12.476Z,100866.34
2022-10-22T06:59:15.307Z,100861.09
2022-10-22T07:02:18.147Z,100859.41
2022-10-22T07:05:21.610Z,100861.34
2022-10-22T07:08:24.617Z,100866.66
2022-10-22T07:11:30.000Z,100854.97
2022-10-22T07:14:32.922Z,100859.69
2022-10-22T07:17:35.712Z,100863.78
2022-10-22T07:20:38.478Z,100861.09
2022-10-22T07:23:41.303Z,100852.91
2022-10-22T07:26:44.247Z,100853.09
2022-10-22T07:29:47.018Z,100874.25
2022-10-22T07:32:50.271Z,100875.91
2022-10-22T07:35:58.881Z,100866.91
2022-10-22T07:39:01.912Z,100873.88
2022-10-22T07:42:04.970Z,100880.25
2022-10-22T07:45:08.453Z,100890.78
2022-10-22T07:48:11.700Z,100896.06
2022-10-22T07:51:14.799Z,100881.16
2022-10-22T07:54:19.370Z,100895.34
2022-10-22T07:57:22.302Z,100883.97
2022-10-22T08:00:25.547Z,100877.19
2022-10-22T08:03:29.467Z,100873.63
2022-10-22T08:06:32.428Z,100878.41
2022-10-22T08:09:35.275Z,100882.38
2022-10-22T08:12:38.658Z,100874.97
2022-10-22T08:18:45.816Z,100885.19
2022-10-22T08:21:48.968Z,100872.88
2022-10-22T08:24:51.694Z,100872.88
2022-10-22T08:27:54.558Z,100871.38
2022-10-22T08:30:57.510Z,100858.88
2022-10-22T08:34:00.550Z,100861.31
2022-10-22T08:37:03.468Z,100865.41
2022-10-22T08:40:25.709Z,100869.47
2022-10-22T08:43:59.128Z,100860.25
2022-10-22T08:47:22.343Z,100860.66
2022-10-22T08:50:41.989Z,100859.47
2022-10-22T08:53:59.138Z,100858.81
2022-10-22T09:00:46.209Z,100853.84
2022-10-22T09:04:06.820Z,100867.47
2022-10-22T09:07:10.547Z,100867.50
2022-10-22T09:10:13.680Z,100867.81
2022-10-22T09:13:20.334Z,100868.28
2022-10-22T09:16:27.267Z,100865.56
2022-10-22T09:19:49.211Z,100870.19
2022-10-22T09:23:06.039Z,100861.81
2022-10-22T09:26:17.066Z,100865.31
2022-10-22T09:29:24.725Z,100870.31
2022-10-22T09:32:28.582Z,100867.72
2022-10-22T09:35:34.253Z,100873.53
2022-10-22T09:38:45.477Z,100862.91
2022-10-22T09:41:48.528Z,100867.38
2022-10-22T09:45:00.256Z,100863.03
2022-10-22T09:48:11.970Z,100854.03
2022-10-22T09:51:21.123Z,100855.25
2022-10-22T09:54:27.775Z,100856.09
2022-10-22T09:57:30.586Z,100843.47
2022-10-22T10:00:33.635Z,100841.25
2022-10-22T10:03:36.358Z,100848.59
2022-10-22T10:06:41.647Z,100842.66
2022-10-22T10:09:44.457Z,100850.91
2022-10-22T10:13:05.611Z,100852.63
2022-10-22T10:16:20.479Z,100846.91
2022-10-22T10:19:23.216Z,100850.59
2022-10-22T10:22:38.104Z,100851.94
2022-10-22T10:25:58.421Z,100844.28
2022-10-22T10:29:19.360Z,100837.81
2022-10-22T10:32:23.743Z,100843.69
2022-10-22T10:35:37.164Z,100845.59
2022-10-22T10:39:34.861Z,100852.69
2022-10-22T10:42:44.577Z,100849.97
2022-10-22T10:46:11.836Z,100851.06
2022-10-22T10:49:26.039Z,100853.19
2022-10-22T10:52:41.776Z,100852.53
2022-10-22T10:56:01.833Z,100845.53
2022-10-22T10:59:10.305Z,100841.66
2022-10-22T11:02:28.042Z,100850.09
2022-10-22T11:05:42.675Z,100835.88
2022-10-22T11:09:09.425Z,100831.41
2022-10-22T11:12:27.318Z,100833.91
2022-10-22T11:15:39.519Z,100827.66
2022-10-22T11:18:53.162Z,100821.91
2022-10-22T11:22:10.721Z,100816.41
2022-10-22T11:25:13.408Z,100836.00
2022-10-22T11:28:42.459Z,100821.66
2022-10-22T11:31:46.020Z,100827.47
2022-10-22T11:34:59.840Z,100830.44
2022-10-22T11:38:06.623Z,100821.66
2022-10-22T11:41:16.183Z,100822.19
2022-10-22T11:44:23.715Z,100816.72
2022-10-22T11:47:30.098Z,100819.97
2022-10-22T11:50:45.258Z,100824.91
2022-10-22T11:53:58.863Z,100836.59
2022-10-22T11:57:16.815Z,100834.88
2022-10-22T12:00:41.259Z,100824.53
2022-10-22T12:04:13.006Z,100819.00
2022-10-22T12:07:35.723Z,100828.13
2022-10-22T12:11:12.431Z,100826.59
2022-10-22T12:14:29.977Z,100829.34
2022-10-22T12:17:32.798Z,100824.59
2022-10-22T12:20:35.913Z,100819.94
2022-10-22T12:23:39.040Z,100813.53
2022-10-22T12:26:41.951Z,100815.94
2022-10-22T12:29:44.797Z,100808.22
2022-10-22T12:32:47.575Z,100822.56
2022-10-22T12:35:53.425Z,100813.38
2022-10-22T12:39:00.673Z,100814.75
2022-10-22T12:42:06.430Z,100808.53
2022-10-22T12:45:09.810Z,100813.13
2022-10-22T12:48:34.540Z,100813.13
2022-10-22T12:51:37.421Z,100815.41
2022-10-22T12:54:40.790Z,100808.63
2022-10-22T12:57:43.556Z,100813.50
2022-10-22T13:00:47.894Z,100819.69
2022-10-22T13:04:03.760Z,100811.38
2022-10-22T13:07:12.570Z,100811.34
2022-10-22T13:10:26.302Z,100799.16
2022-10-22T13:13:45.776Z,100813.38
2022-10-22T13:17:09.367Z,100802.84
2022-10-22T13:20:23.784Z,100797.50
2022-10-22T13:23:28.356Z,100801.03
2022-10-22T13:26:34.985Z,100798.38
2022-10-22T13:29:41.772Z,100798.91
2022-10-22T13:32:50.810Z,100796.25
2022-10-22T13:35:55.344Z,100798.75
2022-10-22T13:38:58.229Z,100800.44
2022-10-22T13:42:01.012Z,100795.56
2022-10-22T13:45:07.298Z,100797.44
2022-10-22T13:48:16.270Z,100799.63
2022-10-22T13:51:24.839Z,100803.94
2022-10-22T13:54:27.592Z,100800.44
2022-10-22T13:57:30.371Z,100806.34
2022-10-22T14:00:33.398Z,100817.44
2022-10-22T14:03:38.165Z,100817.97
2022-10-22T14:06:40.903Z,100817.72
2022-10-22T14:09:43.845Z,100798.28
2022-10-22T14:12:52.276Z,100795.84
2022-10-22T14:15:56.349Z,100802.06
2022-10-22T14:19:00.937Z,100801.25
2022-10-22T14:22:03.680Z,100800.72
2022-10-22T14:25:06.745Z,100800.72
2022-10-22T14:28:11.099Z,100805.81
2022-10-22T14:31:13.914Z,100804.22
2022-10-22T14:34:17.235Z,100801.22
2022-10-22T14:37:20.925Z,100793.66
2022-10-22T14:40:23.858Z,100793.13
2022-10-22T14:43:31.331Z,100786.38
2022-10-22T14:46:34.357Z,100789.63
2022-10-22T14:49:37.171Z,100783.94
2022-10-22T14:52:41.421Z,100799.31
2022-10-22T15:00:05.297Z,100801.97
2022-10-22T15:03:08.160Z,100799.81
2022-10-22T15:06:11.066Z,100805.16
2022-10-22T15:09:15.147Z,100810.00
2022-10-22T15:12:18.098Z,100805.66
2022-10-22T15:15:22.804Z,100796.78
2022-10-22T15:18:27.242Z,100801.09
2022-10-22T15:21:30.118Z,100815.06
2022-10-22T15:24:33.446Z,100820.72
2022-10-22T15:27:36.231Z,100836.56
2022-10-22T15:30:39.120Z,100844.53
2022-10-22T15:33:43.455Z,100861.34
2022-10-22T15:36:46.506Z,100873.28
2022-10-22T15:39:49.564Z,100878.59
2022-10-22T15:42:52.517Z,100889.91
2022-10-22T15:46:08.622Z,100885.41
2022-10-22T15:49:12.729Z,100901.72
2022-10-22T15:52:16.438Z,100897.84
2022-10-22T15:55:19.331Z,100897.59
2022-10-22T15:58:22.129Z,100904.19
2022-10-22T16:01:26.841Z,100912.81
2022-10-22T16:04:29.668Z,100906.56
2022-10-22T16:07:32.664Z,100907.59
2022-10-22T16:10:35.875Z,100920.63
2022-10-22T16:13:38.967Z,100910.03
2022-10-22T16:16:47.453Z,100906.56
2022-10-22T16:19:50.163Z,100914.44
2022-10-22T16:22:53.017Z,100916.16
2022-10-22T16:25:55.803Z,100923.44
2022-10-22T16:28:59.219Z,100932.06
2022-10-22T16:32:02.111Z,100947.19
2022-10-22T16:35:05.221Z,100941.41
2022-10-22T16:38:09.881Z,100944.84
2022-10-22T16:41:20.812Z,100942.34
2022-10-22T16:44:23.851Z,100945.09
2022-10-22T16:47:26.618Z,100946.31
2022-10-22T16:50:29.381Z,100950.94
2022-10-22T16:53:32.340Z,100956.56
2022-10-22T16:56:36.605Z,100982.75
2022-10-22T16:59:39.614Z,100988.59
2022-10-22T17:02:42.762Z,100978.03
2022-10-22T17:05:45.910Z,100985.69
2022-10-22T17:08:48.887Z,100988.25
2022-10-22T17:11:52.135Z,101011.56
2022-10-22T17:14:55.091Z,101034.03
2022-10-22T17:18:00.715Z,101033.53
2022-10-22T17:21:05.414Z,101048.47
2022-10-22T17:24:08.515Z,101048.03
2022-10-22T17:27:11.243Z,101061.28
2022-10-22T17:30:23.294Z,101070.03
2022-10-22T17:33:29.617Z,101065.03
2022-10-22T17:36:35.720Z,101069.13
2022-10-22T17:39:39.092Z,101095.88
2022-10-22T17:42:42.032Z,101080.00
2022-10-22T17:45:45.320Z,101100.63
2022-10-22T17:48:56.752Z,101100.63
2022-10-22T17:55:04.502Z,101114.94
2022-10-22T18:03:39.543Z,101127.09
2022-10-22T18:06:42.519Z,101136.22
2022-10-22T18:09:45.906Z,101128.41
2022-10-22T18:12:49.291Z,101127.47
2022-10-22T18:16:10.070Z,101124.38
2022-10-22T18:19:48.298Z,101130.13
2022-10-22T18:22:51.382Z,101142.59
2022-10-22T18:25:57.031Z,101147.38
2022-10-22T18:29:35.101Z,101157.63
2022-10-22T18:32:42.959Z,101162.59
2022-10-22T18:35:46.930Z,101156.59
2022-10-22T18:38:58.784Z,101151.53
2022-10-22T18:42:06.416Z,101157.72
2022-10-22T18:45:10.867Z,101154.69
2022-10-22T18:48:17.369Z,101158.97
2022-10-22T18:51:21.163Z,101159.59
2022-10-22T18:54:24.744Z,101154.94
2022-10-22T18:57:28.006Z,101158.88
2022-10-22T19:00:31.463Z,101155.78
2022-10-22T19:03:34.730Z,101155.56
2022-10-22T19:06:38.469Z,101151.25
2022-10-22T19:09:43.448Z,101170.19
2022-10-22T19:12:46.258Z,101159.78
2022-10-22T19:15:49.668Z,101169.34
2022-10-22T19:19:15.294Z,101176.88
2022-10-22T19:22:18.267Z,101170.31
2022-10-22T19:25:21.166Z,101179.09
2022-10-22T19:28:24.052Z,101186.09
2022-10-22T19:31:30.107Z,101179.34
2022-10-22T19:34:32.983Z,101184.53
2022-10-22T19:37:37.711Z,101199.72
2022-10-22T19:40:43.571Z,101198.91
2022-10-22T19:43:49.696Z,101189.41
2022-10-22T19:46:54.149Z,101187.94
2022-10-22T19:49:56.988Z,101184.88
2022-10-22T19:53:01.589Z,101197.09
2022-10-22T19:56:10.088Z,101198.50
2022-10-22T19:59:15.411Z,101193.63
2022-10-22T20:02:18.966Z,101193.72
2022-10-22T20:08:26.056Z,101193.03
2022-10-22T20:11:29.982Z,101196.53
2022-10-22T20:14:33.616Z,101201.75
2022-10-22T20:17:36.887Z,101207.88
2022-10-22T20:20:39.797Z,101218.13
2022-10-22T20:23:43.324Z,101226.84
2022-10-22T20:26:47.117Z,101219.69
2022-10-22T20:29:49.971Z,101226.28
2022-10-22T20:32:52.978Z,101239.91
2022-10-22T20:36:05.364Z,101241.91
2022-10-22T20:39:12.860Z,101237.78
2022-10-22T20:42:16.735Z,101245.53
2022-10-22T20:45:19.650Z,101238.41
2022-10-22T20:48:26.730Z,101255.00
2022-10-22T20:51:29.654Z,101255.28
2022-10-22T20:54:33.068Z,101264.63
2022-10-22T20:57:36.428Z,101265.66
2022-10-22T21:00:39.928Z,101262.38
2022-10-22T21:03:42.990Z,101250.38
2022-10-22T21:06:46.144Z,101275.75
2022-10-22T21:09:50.945Z,101284.81
2022-10-22T21:12:53.650Z,101281.53
2022-10-22T21:15:56.500Z,101286.06
2022-10-22T21:18:59.408Z,101295.28
2022-10-22T21:22:02.165Z,101301.00
2022-10-22T21:25:05.297Z,101299.78
2022-10-22T21:28:08.224Z,101299.78
2022-10-22T21:31:18.826Z,101303.25
2022-10-22T21:34:21.659Z,101303.88
2022-10-22T21:37:24.570Z,101303.00
2022-10-22T21:40:28.243Z,101299.94
2022-10-22T21:43:30.894Z,101305.84
2022-10-22T21:46:34.640Z,101304.19
2022-10-22T21:49:37.443Z,101312.81
2022-10-22T21:52:40.283Z,101318.13
2022-10-22T21:55:43.053Z,101315.47
2022-10-22T21:58:45.945Z,101317.94
2022-10-22T22:01:48.803Z,101327.53
2022-10-22T22:04:54.912Z,101334.50
2022-10-22T22:07:57.767Z,101337.22
2022-10-22T22:11:14.136Z,101329.25
2022-10-22T22:14:16.906Z,101340.94
2022-10-22T22:17:19.618Z,101337.25
2022-10-22T22:20:22.276Z,101341.56
2022-10-22T22:23:25.818Z,101353.03
2022-10-22T22:26:30.010Z,101349.56
2022-10-22T22:29:33.393Z,101347.91
2022-10-22T22:32:36.220Z,101358.19
2022-10-22T22:38:41.982Z,101357.75
2022-10-22T22:41:46.082Z,101361.44
2022-10-22T22:44:48.875Z,101359.59
2022-10-22T22:47:51.735Z,101350.38
2022-10-22T22:50:54.867Z,101351.38
2022-10-22T22:53:58.838Z,101353.06
2022-10-22T22:57:01.549Z,101358.56
2022-10-22T23:00:05.906Z,101355.69
2022-10-22T23:03:11.927Z,101347.91
2022-10-22T23:06:15.525Z,101358.34
2022-10-22T23:12:23.577Z,101354.66
2022-10-22T23:15:26.432Z,101360.81
2022-10-22T23:18:29.415Z,101357.97
2022-10-22T23:21:34.930Z,101362.25
2022-10-22T23:24:38.231Z,101355.69
2022-10-22T23:27:41.283Z,101362.47
2022-10-22T23:30:45.319Z,101350.38
2022-10-22T23:33:49.138Z,101357.56
2022-10-22T23:36:52.756Z,101352.25
2022-10-22T23:39:55.673Z,101353.84
2022-10-22T23:42:58.539Z,101357.53
2022-10-22T23:46:01.475Z,101348.13
2022-10-22T23:49:05.868Z,101364.72
2022-10-22T23:52:08.584Z,101354.06
2022-10-22T23:55:11.298Z,101362.09
2022-10-22T23:58:14.062Z,101358.97
